Home > Products > Valid Products > TAF

000
FTUS45 KCYS 190541
TAFLAR
TAF
KLAR 190541Z 1906/2006 23008KT P6SM SCT200
     FM191400 24013KT P6SM SKC
     FM191800 25014G22KT P6SM FEW200
     FM200000 24010KT P6SM BKN200=



000
FTUS45 KCYS 190541
TAFRWL
TAF
KRWL 190541Z 1906/2006 24010KT P6SM SCT030
     FM191500 24017G24KT P6SM SKC
     FM191800 23020G27KT P6SM SCT250
     FM200000 23013G20KT P6SM BKN250=



000
FTUS45 KCYS 190541
TAFCYS
TAF
KCYS 190541Z 1906/2006 27009KT P6SM SCT200
     FM191400 28012KT P6SM SKC
     FM191700 28015G22KT P6SM FEW250
     FM200000 27010KT P6SM SCT250=



000
FTUS45 KCYS 190541
TAFRWL
TAF
KRWL 190541Z 1906/2006 24010KT P6SM SCT030
     FM191500 24017G24KT P6SM SKC
     FM191800 23020G27KT P6SM SCT250
     FM200000 23013G20KT P6SM BKN250=



000
FTUS45 KCYS 190541
TAFCYS
TAF
KCYS 190541Z 1906/2006 27009KT P6SM SCT200
     FM191400 28012KT P6SM SKC
     FM191700 28015G22KT P6SM FEW250
     FM200000 27010KT P6SM SCT250=



000
FTUS45 KCYS 190541
TAFLAR
TAF
KLAR 190541Z 1906/2006 23008KT P6SM SCT200
     FM191400 24013KT P6SM SKC
     FM191800 25014G22KT P6SM FEW200
     FM200000 24010KT P6SM BKN200=



000
FTUS45 KCYS 182338
TAFRWL
TAF
KRWL 182338Z 1900/1924 24010KT P6SM SKC
     FM190600 24014KT P6SM SCT020
     FM191600 24017G24KT P6SM SKC=



000
FTUS45 KCYS 182338
TAFCYS
TAF
KCYS 182338Z 1900/1924 27009KT P6SM BKN200
     FM191600 28012G19KT P6SM SKC
     FM191700 28015G22KT P6SM FEW250=



000
FTUS45 KCYS 182338
TAFLAR
TAF
KLAR 182338Z 1900/1924 VRB05KT P6SM BKN200
     FM191200 24013KT P6SM SCT015
     FM191800 25014KT P6SM SCT200=



000
FTUS45 KCYS 182338
TAFLAR
TAF
KLAR 182338Z 1900/1924 VRB05KT P6SM BKN200
     FM191200 24013KT P6SM SCT015
     FM191800 25014KT P6SM SCT200=



000
FTUS45 KCYS 182338
TAFCYS
TAF
KCYS 182338Z 1900/1924 27009KT P6SM BKN200
     FM191600 28012G19KT P6SM SKC
     FM191700 28015G22KT P6SM FEW250=



000
FTUS45 KCYS 182338
TAFRWL
TAF
KRWL 182338Z 1900/1924 24010KT P6SM SKC
     FM190600 24014KT P6SM SCT020
     FM191600 24017G24KT P6SM SKC=



000
FTUS45 KCYS 181739
TAFLAR
TAF
KLAR 181739Z 1818/1918 24009KT P6SM SCT250=



000
FTUS45 KCYS 181739
TAFCYS
TAF
KCYS 181739Z 1818/1918 28012G19KT P6SM SCT300
     FM182300 27009KT P6SM SCT300=



000
FTUS45 KCYS 181739
TAFRWL
TAF
KRWL 181739Z 1818/1918 24012G18KT P6SM SCT250
     FM190600 24014KT P6SM SCT020 BKN035=



000
FTUS45 KCYS 181739
TAFCYS
TAF
KCYS 181739Z 1818/1918 28012G19KT P6SM SCT300
     FM182300 27009KT P6SM SCT300=



000
FTUS45 KCYS 181739
TAFLAR
TAF
KLAR 181739Z 1818/1918 24009KT P6SM SCT250=



000
FTUS45 KCYS 181739
TAFRWL
TAF
KRWL 181739Z 1818/1918 24012G18KT P6SM SCT250
     FM190600 24014KT P6SM SCT020 BKN035=



000
FTUS45 KCYS 181138
TAFCYS
TAF
KCYS 181138Z 1812/1912 29008KT P6SM FEW200
     FM181800 30011G17KT P6SM SCT200
     FM182300 30009KT P6SM BKN200=



000
FTUS45 KCYS 181138
TAFRWL
TAF
KRWL 181138Z 1812/1912 24009KT P6SM SCT200
     FM181600 25012G18KT P6SM SCT025 BKN050=



000
FTUS45 KCYS 181138
TAFRWL
TAF
KRWL 181138Z 1812/1912 24009KT P6SM SCT200
     FM181600 25012G18KT P6SM SCT025 BKN050=



000
FTUS45 KCYS 181138
TAFLAR
TAF
KLAR 181138Z 1812/1912 VRB05KT P6SM FEW200
     FM181600 27010KT P6SM SCT100
     FM190300 23007KT P6SM SCT200=



000
FTUS45 KCYS 180527
TAFCYS
TAF
KCYS 180527Z 1806/1906 29008KT P6SM FEW050=



000
FTUS45 KCYS 180527
TAFLAR
TAF
KLAR 180527Z 1806/1906 16005KT P6SM SCT200
     FM181900 27010KT P6SM BKN100=



000
FTUS45 KCYS 180527
TAFRWL
TAF
KRWL 180527Z 1806/1906 VRB03KT P6SM SCT200
     FM181600 25012G18KT P6SM SCT007 BKN015 BKN150=



000
FTUS45 KCYS 180527
TAFCYS
TAF
KCYS 180527Z 1806/1906 29008KT P6SM FEW050=



000
FTUS45 KCYS 180527
TAFRWL
TAF
KRWL 180527Z 1806/1906 VRB03KT P6SM SCT200
     FM181600 25012G18KT P6SM SCT007 BKN015 BKN150=



000
FTUS45 KCYS 180527
TAFLAR
TAF
KLAR 180527Z 1806/1906 16005KT P6SM SCT200
     FM181900 27010KT P6SM BKN100=



000
FTUS45 KCYS 172324
TAFRWL
TAF
KRWL 172324Z 1800/1824 24007KT P6SM SCT250
     FM181600 24013G20KT P6SM BKN020=



000
FTUS45 KCYS 172324
TAFLAR
TAF
KLAR 172324Z 1800/1824 VRB05KT P6SM BKN200
     FM180200 19005KT P6SM SCT200
     FM181900 26010KT P6SM SCT100=



000
FTUS45 KCYS 172324
TAFCYS
TAF
KCYS 172324Z 1800/1824 27007KT P6SM SCT050=



000
FTUS45 KCYS 172324
TAFCYS
TAF
KCYS 172324Z 1800/1824 27007KT P6SM SCT050=



000
FTUS45 KCYS 172324
TAFLAR
TAF
KLAR 172324Z 1800/1824 VRB05KT P6SM BKN200
     FM180200 19005KT P6SM SCT200
     FM181900 26010KT P6SM SCT100=



000
FTUS45 KCYS 172324
TAFRWL
TAF
KRWL 172324Z 1800/1824 24007KT P6SM SCT250
     FM181600 24013G20KT P6SM BKN020=



000
FTUS45 KCYS 171723
TAFLAR
TAF
KLAR 171723Z 1718/1818 24007KT P6SM OVC060
     FM180200 19005KT P6SM SCT060=



000
FTUS45 KCYS 171723
TAFRWL
TAF
KRWL 171723Z 1718/1818 24009KT P6SM SKC=



000
FTUS45 KCYS 171723
TAFCYS
TAF
KCYS 171723Z 1718/1818 29006KT P6SM SCT100 BKN250=



000
FTUS45 KCYS 171723
TAFRWL
TAF
KRWL 171723Z 1718/1818 24009KT P6SM SKC=



000
FTUS45 KCYS 171723
TAFLAR
TAF
KLAR 171723Z 1718/1818 24007KT P6SM OVC060
     FM180200 19005KT P6SM SCT060=



000
FTUS45 KCYS 171723
TAFCYS
TAF
KCYS 171723Z 1718/1818 29006KT P6SM SCT100 BKN250=



000
FTUS45 KCYS 171509 AAA
TAFRWL
TAF AMD
KRWL 171509Z 1715/1812 VRB03KT P6SM SCT250
     FM171800 25012G18KT P6SM FEW250
     FM172300 25005KT P6SM SCT250=



000
FTUS45 KCYS 171509 AAA
TAFRWL
TAF AMD
KRWL 171509Z 1715/1812 VRB03KT P6SM SCT250
     FM171800 25012G18KT P6SM FEW250
     FM172300 25005KT P6SM SCT250=



000
FTUS45 KCYS 171139
TAFLAR
TAF
KLAR 171139Z 1712/1812 20008KT P6SM BKN250
     FM171800 24008KT P6SM SCT250
     FM180200 23007KT P6SM SCT050 BKN250=



000
FTUS45 KCYS 171139
TAFLAR
TAF
KLAR 171139Z 1712/1812 20008KT P6SM BKN250
     FM171800 24008KT P6SM SCT250
     FM180200 23007KT P6SM SCT050 BKN250=



000
FTUS45 KCYS 171139
TAFCYS
TAF
KCYS 171139Z 1712/1812 28008KT P6SM SCT100 BKN250
     FM180000 26006KT P6SM SCT025 BKN050
     FM180500 28007KT P6SM BKN250=



000
FTUS45 KCYS 171139
TAFRWL
TAF
KRWL 171139Z 1712/1812 22006KT P6SM BKN250
     FM171500 25012G18KT P6SM FEW250
     FM172300 25005KT P6SM SCT250=



000
FTUS45 KCYS 171139
TAFCYS
TAF
KCYS 171139Z 1712/1812 28008KT P6SM SCT100 BKN250
     FM180000 26006KT P6SM SCT025 BKN050
     FM180500 28007KT P6SM BKN250=



000
FTUS45 KCYS 171139
TAFRWL
TAF
KRWL 171139Z 1712/1812 22006KT P6SM BKN250
     FM171500 25012G18KT P6SM FEW250
     FM172300 25005KT P6SM SCT250=



000
FTUS45 KCYS 170537
TAFRWL
TAF
KRWL 170537Z 1706/1806 22006KT P6SM BKN150
     FM171500 25012G18KT P6SM SCT150
     FM172300 25005KT P6SM SCT035 SCT200=



000
FTUS45 KCYS 170537
TAFCYS
TAF
KCYS 170537Z 1706/1806 28005KT P6SM BKN100
     FM172300 26006KT P6SM BKN035=



000
FTUS45 KCYS 170537
TAFLAR
TAF
KLAR 170537Z 1706/1806 VRB03KT P6SM BKN100
     FM171200 20008KT P6SM BKN150
     FM172300 32006KT P6SM SCT150=



000
FTUS45 KCYS 170537
TAFRWL
TAF
KRWL 170537Z 1706/1806 22006KT P6SM BKN150
     FM171500 25012G18KT P6SM SCT150
     FM172300 25005KT P6SM SCT035 SCT200=



000
FTUS45 KCYS 170537
TAFCYS
TAF
KCYS 170537Z 1706/1806 28005KT P6SM BKN100
     FM172300 26006KT P6SM BKN035=



000
FTUS45 KCYS 170537
TAFLAR
TAF
KLAR 170537Z 1706/1806 VRB03KT P6SM BKN100
     FM171200 20008KT P6SM BKN150
     FM172300 32006KT P6SM SCT150=



000
FTUS45 KCYS 170504 AAA
TAFRWL
TAF AMD
KRWL 170504Z 1705/1724 24006KT P6SM BKN100
     FM171500 24012G18KT P6SM SCT150=



000
FTUS45 KCYS 170504 AAA
TAFRWL
TAF AMD
KRWL 170504Z 1705/1724 24006KT P6SM BKN100
     FM171500 24012G18KT P6SM SCT150=



000
FTUS45 KCYS 162333
TAFLAR
TAF
KLAR 162333Z 1700/1724 16006KT P6SM BKN070
     FM170600 VRB05KT 2SM BR BKN070
     FM171000 20007KT P6SM BKN100
     FM172000 32008KT P6SM SCT100=



000
FTUS45 KCYS 162333
TAFCYS
TAF
KCYS 162333Z 1700/1724 VRB05KT P6SM BKN070
     FM171200 27008KT P6SM BKN100
     FM171800 28007KT P6SM OVC050=



000
FTUS45 KCYS 162333
TAFRWL
TAF
KRWL 162333Z 1700/1724 VRB03KT P6SM BKN100
     FM170500 23009KT 2SM BR OVC007
     FM171500 24012G18KT P6SM OVC015=



000
FTUS45 KCYS 162333
TAFCYS
TAF
KCYS 162333Z 1700/1724 VRB05KT P6SM BKN070
     FM171200 27008KT P6SM BKN100
     FM171800 28007KT P6SM OVC050=



000
FTUS45 KCYS 162333
TAFRWL
TAF
KRWL 162333Z 1700/1724 VRB03KT P6SM BKN100
     FM170500 23009KT 2SM BR OVC007
     FM171500 24012G18KT P6SM OVC015=



000
FTUS45 KCYS 162333
TAFLAR
TAF
KLAR 162333Z 1700/1724 16006KT P6SM BKN070
     FM170600 VRB05KT 2SM BR BKN070
     FM171000 20007KT P6SM BKN100
     FM172000 32008KT P6SM SCT100=



000
FTUS45 KCYS 162158 AAA
TAFRWL
TAF AMD
KRWL 162158Z 1622/1718 23010KT P6SM BKN100
     FM170500 23006KT 4SM BR OVC007
     FM171300 23009KT P6SM OVC015=



000
FTUS45 KCYS 162158 AAA
TAFRWL
TAF AMD
KRWL 162158Z 1622/1718 23010KT P6SM BKN100
     FM170500 23006KT 4SM BR OVC007
     FM171300 23009KT P6SM OVC015=



000
FTUS45 KCYS 162157 AAA
TAFLAR
TAF AMD
KLAR 162157Z 1622/1718 14006KT P6SM BKN100
     FM170000 VRB04KT P6SM BKN100=



000
FTUS45 KCYS 162157 AAA
TAFLAR
TAF AMD
KLAR 162157Z 1622/1718 14006KT P6SM BKN100
     FM170000 VRB04KT P6SM BKN100=



000
FTUS45 KCYS 162156 AAC
TAFCYS
TAF AMD
KCYS 162156Z 1622/1718 11010KT 6SM -SHSN FEW050 OVC080
     FM170000 24007KT P6SM SCT025 BKN100=



000
FTUS45 KCYS 162156 AAC
TAFCYS
TAF AMD
KCYS 162156Z 1622/1718 11010KT 6SM -SHSN FEW050 OVC080
     FM170000 24007KT P6SM SCT025 BKN100=



000
FTUS45 KCYS 161741
TAFRWL
TAF
KRWL 161741Z 1618/1718 19007KT P6SM SCT080
     FM161900 22015G22KT 6SM -SHSN SCT018 BKN030
     FM162200 23010KT P6SM BKN100
     FM170500 23006KT 4SM BR OVC007
     FM171300 23009KT P6SM OVC015=



000
FTUS45 KCYS 161741
TAFLAR
TAF
KLAR 161741Z 1618/1718 20008KT P6SM SCT070 BKN120
     FM162000 22010KT 6SM -SHSN SCT018 OVC030
     FM170000 20007KT P6SM BKN100=



000
FTUS45 KCYS 161741
TAFCYS
TAF
KCYS 161741Z 1618/1718 21012KT P6SM SCT150
     FM162100 17010KT 6SM -SHSN SCT018 OVC030
     FM170000 24007KT P6SM SCT025 BKN100=



000
FTUS45 KCYS 161741
TAFLAR
TAF
KLAR 161741Z 1618/1718 20008KT P6SM SCT070 BKN120
     FM162000 22010KT 6SM -SHSN SCT018 OVC030
     FM170000 20007KT P6SM BKN100=



000
FTUS45 KCYS 161741
TAFRWL
TAF
KRWL 161741Z 1618/1718 19007KT P6SM SCT080
     FM161900 22015G22KT 6SM -SHSN SCT018 BKN030
     FM162200 23010KT P6SM BKN100
     FM170500 23006KT 4SM BR OVC007
     FM171300 23009KT P6SM OVC015=



000
FTUS45 KCYS 161741
TAFCYS
TAF
KCYS 161741Z 1618/1718 21012KT P6SM SCT150
     FM162100 17010KT 6SM -SHSN SCT018 OVC030
     FM170000 24007KT P6SM SCT025 BKN100=



000
FTUS45 KCYS 161139
TAFCYS
TAF
KCYS 161139Z 1612/1712 25012KT P6SM SCT150
     FM162000 20010KT 6SM -SHSN SCT018 OVC030
     FM170000 24007KT P6SM SCT025 BKN100=



000
FTUS45 KCYS 161139
TAFLAR
TAF
KLAR 161139Z 1612/1712 16007KT P6SM SCT150
     FM161800 20008KT P6SM OVC060
     FM162000 22010KT 6SM -SHSN SCT018 OVC030
     FM170000 20007KT P6SM BKN100=



000
FTUS45 KCYS 161139
TAFRWL
TAF
KRWL 161139Z 1612/1712 19007KT P6SM SCT080
     FM161800 22015G22KT 6SM -SHSN SCT018 BKN030
     FM162200 23010KT P6SM BKN100=



000
FTUS45 KCYS 161139
TAFRWL
TAF
KRWL 161139Z 1612/1712 19007KT P6SM SCT080
     FM161800 22015G22KT 6SM -SHSN SCT018 BKN030
     FM162200 23010KT P6SM BKN100=



000
FTUS45 KCYS 161139
TAFCYS
TAF
KCYS 161139Z 1612/1712 25012KT P6SM SCT150
     FM162000 20010KT 6SM -SHSN SCT018 OVC030
     FM170000 24007KT P6SM SCT025 BKN100=



000
FTUS45 KCYS 161139
TAFLAR
TAF
KLAR 161139Z 1612/1712 16007KT P6SM SCT150
     FM161800 20008KT P6SM OVC060
     FM162000 22010KT 6SM -SHSN SCT018 OVC030
     FM170000 20007KT P6SM BKN100=



000
FTUS45 KCYS 160804 AAA
TAFLAR
TAF AMD
KLAR 160804Z 1608/1706 VRB05KT P6SM VCFG SCT001
     FM161300 20008KT P6SM OVC060
     FM162000 22010KT 6SM -SHSN OVC015
     FM170000 20007KT P6SM BKN100=



000
FTUS45 KCYS 160804 AAA
TAFLAR
TAF AMD
KLAR 160804Z 1608/1706 VRB05KT P6SM VCFG SCT001
     FM161300 20008KT P6SM OVC060
     FM162000 22010KT 6SM -SHSN OVC015
     FM170000 20007KT P6SM BKN100=



    US Dept of Commerce
    National Oceanic and Atmospheric Administration
    National Weather Service
    1325 East West Highway
    Silver Spring, MD 20910
    Page Author: NWS Internet Services Team
Disclaimer
Information Quality
Credits
Glossary
Privacy Policy
Freedom of Information Act (FOIA)
About Us
Career Opportunities